Kittilä Airport

Airport
ICAO code: 
EFKT
IATA Code: 
KTT
Summary
ICAO Region: 
EUR
Territory: 
Location: 
Kittilä, Lapland
Serving: 
Kittilä
Elevation: 
644 ft
Coordinates: 
Aerial View: 
67° 41' 42.185" N, 24° 51' 3.249" E
Airport CFIT: 
Altimeter Temperature Error Correction
Airport GND: 
Aircraft Ground De/Anti Icing
Airport RE: 
Landing on Contaminated Runways
Metar
Observation
EFKT 090120Z AUTO VRB01KT 9999 -SHSN FEW039 M18/M21 Q1020
Station
Kittila
Date/Time
2021-12-09 01:20:00
Wind speed
01 kts
Lowest cloud amount
few clouds
Temperature
-18°C
Dew point
-21°C
Humidity
77%
QNH
1020 hPa
Weather condition
light showers snow

Description

Largely domestic but also international airport located in Kittilä, Finland.

Climatology

Subarctic climate (Köppen climate classification Dfc) - long, usually very cold winters, and short, cool to mild summers.

Runways

Designator Length Width Surface Rops
16/34 2500 45 ASP Yes/Yes
Airport map: 
Aerial View: 

Accidents and Serious Incidents at or in the vicinity of EFKT

SKYbrary Partners:

Safety knowledge contributed by: